sensor_id;sensor_type;location;lat;lon;timestamp;P1;durP1;ratioP1;P2;durP2;ratioP2
4821;SDS011;2425;47.794;13.068;2023-11-18T00:01:21;1.30;;;1.30;;
4821;SDS011;2425;47.794;13.068;2023-11-18T00:03:48;1.90;;;1.47;;
4821;SDS011;2425;47.794;13.068;2023-11-18T00:06:16;1.60;;;1.60;;
4821;SDS011;2425;47.794;13.068;2023-11-18T00:08:43;1.90;;;1.30;;
4821;SDS011;2425;47.794;13.068;2023-11-18T00:11:10;1.73;;;1.63;;
4821;SDS011;2425;47.794;13.068;2023-11-18T00:13:38;1.67;;;1.60;;
4821;SDS011;2425;47.794;13.068;2023-11-18T00:16:07;2.23;;;1.60;;
4821;SDS011;2425;47.794;13.068;2023-11-18T00:18:37;1.77;;;1.67;;
4821;SDS011;2425;47.794;13.068;2023-11-18T00:21:04;1.40;;;1.40;;
4821;SDS011;2425;47.794;13.068;2023-11-18T00:23:33;1.60;;;1.50;;
4821;SDS011;2425;47.794;13.068;2023-11-18T00:25:59;2.70;;;1.63;;
4821;SDS011;2425;47.794;13.068;2023-11-18T00:28:27;1.63;;;1.63;;
4821;SDS011;2425;47.794;13.068;2023-11-18T00:30:53;1.37;;;1.27;;
4821;SDS011;2425;47.794;13.068;2023-11-18T00:33:20;2.20;;;1.80;;
4821;SDS011;2425;47.794;13.068;2023-11-18T00:35:47;1.33;;;1.33;;
4821;SDS011;2425;47.794;13.068;2023-11-18T00:38:14;3.13;;;1.50;;
4821;SDS011;2425;47.794;13.068;2023-11-18T00:40:42;1.40;;;1.40;;
4821;SDS011;2425;47.794;13.068;2023-11-18T00:43:09;1.20;;;1.20;;
4821;SDS011;2425;47.794;13.068;2023-11-18T00:45:35;3.33;;;1.57;;
4821;SDS011;2425;47.794;13.068;2023-11-18T00:48:02;1.40;;;1.40;;
4821;SDS011;2425;47.794;13.068;2023-11-18T00:50:30;1.70;;;1.60;;
4821;SDS011;2425;47.794;13.068;2023-11-18T00:52:58;1.37;;;1.30;;
4821;SDS011;2425;47.794;13.068;2023-11-18T00:55:25;1.20;;;1.20;;
4821;SDS011;2425;47.794;13.068;2023-11-18T00:57:53;1.40;;;1.40;;
4821;SDS011;2425;47.794;13.068;2023-11-18T01:00:19;1.23;;;1.23;;
4821;SDS011;2425;47.794;13.068;2023-11-18T01:02:47;1.23;;;1.23;;
4821;SDS011;2425;47.794;13.068;2023-11-18T01:05:14;2.30;;;1.80;;
4821;SDS011;2425;47.794;13.068;2023-11-18T01:07:41;1.60;;;1.60;;
4821;SDS011;2425;47.794;13.068;2023-11-18T01:10:08;2.30;;;1.60;;
4821;SDS011;2425;47.794;13.068;2023-11-18T01:12:36;1.33;;;1.33;;
4821;SDS011;2425;47.794;13.068;2023-11-18T01:15:05;2.73;;;1.20;;
4821;SDS011;2425;47.794;13.068;2023-11-18T01:17:32;1.87;;;1.70;;
4821;SDS011;2425;47.794;13.068;2023-11-18T01:19:59;1.63;;;1.60;;
4821;SDS011;2425;47.794;13.068;2023-11-18T01:22:26;1.63;;;1.63;;
4821;SDS011;2425;47.794;13.068;2023-11-18T01:24:53;1.50;;;1.50;;
4821;SDS011;2425;47.794;13.068;2023-11-18T01:27:19;1.17;;;1.17;;
4821;SDS011;2425;47.794;13.068;2023-11-18T01:29:48;1.70;;;1.60;;
4821;SDS011;2425;47.794;13.068;2023-11-18T01:32:16;1.50;;;1.50;;
4821;SDS011;2425;47.794;13.068;2023-11-18T01:34:42;1.60;;;1.53;;
4821;SDS011;2425;47.794;13.068;2023-11-18T01:37:15;1.43;;;1.37;;
4821;SDS011;2425;47.794;13.068;2023-11-18T01:39:41;2.03;;;1.23;;
4821;SDS011;2425;47.794;13.068;2023-11-18T01:42:08;1.70;;;1.60;;
4821;SDS011;2425;47.794;13.068;2023-11-18T01:44:36;1.47;;;1.47;;
4821;SDS011;2425;47.794;13.068;2023-11-18T01:47:03;1.40;;;1.37;;
4821;SDS011;2425;47.794;13.068;2023-11-18T01:49:33;1.20;;;1.20;;
4821;SDS011;2425;47.794;13.068;2023-11-18T01:52:02;1.10;;;1.10;;
4821;SDS011;2425;47.794;13.068;2023-11-18T01:54:29;1.40;;;1.40;;
4821;SDS011;2425;47.794;13.068;2023-11-18T01:56:57;1.40;;;1.40;;
4821;SDS011;2425;47.794;13.068;2023-11-18T01:59:25;1.17;;;1.17;;
4821;SDS011;2425;47.794;13.068;2023-11-18T02:01:55;1.37;;;1.20;;
4821;SDS011;2425;47.794;13.068;2023-11-18T02:04:24;3.33;;;1.47;;
4821;SDS011;2425;47.794;13.068;2023-11-18T02:06:53;1.40;;;1.40;;
4821;SDS011;2425;47.794;13.068;2023-11-18T02:09:21;1.20;;;1.20;;
4821;SDS011;2425;47.794;13.068;2023-11-18T02:11:53;1.50;;;1.40;;
4821;SDS011;2425;47.794;13.068;2023-11-18T02:14:24;1.57;;;1.30;;
4821;SDS011;2425;47.794;13.068;2023-11-18T02:16:53;1.37;;;1.37;;
4821;SDS011;2425;47.794;13.068;2023-11-18T02:19:23;1.50;;;1.40;;
4821;SDS011;2425;47.794;13.068;2023-11-18T02:21:51;1.50;;;1.50;;
4821;SDS011;2425;47.794;13.068;2023-11-18T02:24:25;1.00;;;1.00;;
4821;SDS011;2425;47.794;13.068;2023-11-18T02:26:56;2.13;;;1.10;;
4821;SDS011;2425;47.794;13.068;2023-11-18T02:29:23;1.80;;;1.70;;
4821;SDS011;2425;47.794;13.068;2023-11-18T02:31:51;1.13;;;1.13;;
4821;SDS011;2425;47.794;13.068;2023-11-18T02:34:19;1.30;;;1.27;;
4821;SDS011;2425;47.794;13.068;2023-11-18T02:36:51;1.10;;;1.10;;
4821;SDS011;2425;47.794;13.068;2023-11-18T02:39:20;1.30;;;1.30;;
4821;SDS011;2425;47.794;13.068;2023-11-18T02:41:48;1.23;;;1.23;;
4821;SDS011;2425;47.794;13.068;2023-11-18T02:44:19;1.47;;;1.30;;
4821;SDS011;2425;47.794;13.068;2023-11-18T02:46:48;1.37;;;1.27;;
4821;SDS011;2425;47.794;13.068;2023-11-18T02:49:15;1.30;;;1.30;;
4821;SDS011;2425;47.794;13.068;2023-11-18T02:51:42;1.43;;;1.33;;
4821;SDS011;2425;47.794;13.068;2023-11-18T02:54:12;1.27;;;1.27;;
4821;SDS011;2425;47.794;13.068;2023-11-18T02:56:41;1.47;;;1.40;;
4821;SDS011;2425;47.794;13.068;2023-11-18T02:59:08;1.10;;;1.10;;
4821;SDS011;2425;47.794;13.068;2023-11-18T03:01:36;1.13;;;1.13;;
4821;SDS011;2425;47.794;13.068;2023-11-18T03:04:04;1.20;;;1.20;;
4821;SDS011;2425;47.794;13.068;2023-11-18T03:06:31;1.23;;;1.17;;
4821;SDS011;2425;47.794;13.068;2023-11-18T03:08:58;1.67;;;1.57;;
4821;SDS011;2425;47.794;13.068;2023-11-18T03:11:25;1.20;;;1.20;;
4821;SDS011;2425;47.794;13.068;2023-11-18T03:13:56;1.20;;;1.20;;
4821;SDS011;2425;47.794;13.068;2023-11-18T03:16:23;1.23;;;1.00;;
4821;SDS011;2425;47.794;13.068;2023-11-18T03:18:51;1.40;;;1.40;;
4821;SDS011;2425;47.794;13.068;2023-11-18T03:21:20;1.23;;;1.23;;
4821;SDS011;2425;47.794;13.068;2023-11-18T03:23:46;0.90;;;0.90;;
4821;SDS011;2425;47.794;13.068;2023-11-18T03:26:13;1.30;;;1.30;;
4821;SDS011;2425;47.794;13.068;2023-11-18T03:28:40;1.10;;;1.10;;
4821;SDS011;2425;47.794;13.068;2023-11-18T03:31:06;1.10;;;1.10;;
4821;SDS011;2425;47.794;13.068;2023-11-18T03:33:34;1.17;;;1.17;;
4821;SDS011;2425;47.794;13.068;2023-11-18T03:36:02;1.10;;;1.10;;
4821;SDS011;2425;47.794;13.068;2023-11-18T03:38:29;0.93;;;0.93;;
4821;SDS011;2425;47.794;13.068;2023-11-18T03:40:56;1.10;;;1.10;;
4821;SDS011;2425;47.794;13.068;2023-11-18T03:43:23;1.10;;;1.10;;
4821;SDS011;2425;47.794;13.068;2023-11-18T03:45:50;1.00;;;1.00;;
4821;SDS011;2425;47.794;13.068;2023-11-18T03:48:17;1.40;;;1.30;;
4821;SDS011;2425;47.794;13.068;2023-11-18T03:50:45;1.13;;;1.13;;
4821;SDS011;2425;47.794;13.068;2023-11-18T03:53:13;1.30;;;1.20;;
4821;SDS011;2425;47.794;13.068;2023-11-18T03:55:39;1.20;;;1.20;;
4821;SDS011;2425;47.794;13.068;2023-11-18T03:58:06;1.03;;;1.03;;
4821;SDS011;2425;47.794;13.068;2023-11-18T04:00:34;1.17;;;1.17;;
4821;SDS011;2425;47.794;13.068;2023-11-18T04:03:00;1.10;;;1.10;;
4821;SDS011;2425;47.794;13.068;2023-11-18T04:05:27;2.10;;;1.00;;
4821;SDS011;2425;47.794;13.068;2023-11-18T04:07:54;0.90;;;0.90;;
4821;SDS011;2425;47.794;13.068;2023-11-18T04:10:22;1.00;;;1.00;;
4821;SDS011;2425;47.794;13.068;2023-11-18T04:12:49;1.00;;;1.00;;
4821;SDS011;2425;47.794;13.068;2023-11-18T04:15:16;1.43;;;1.40;;
4821;SDS011;2425;47.794;13.068;2023-11-18T04:17:43;1.10;;;1.10;;
4821;SDS011;2425;47.794;13.068;2023-11-18T04:20:10;1.50;;;1.50;;
4821;SDS011;2425;47.794;13.068;2023-11-18T04:22:38;1.13;;;1.10;;
4821;SDS011;2425;47.794;13.068;2023-11-18T04:25:06;1.30;;;1.20;;
4821;SDS011;2425;47.794;13.068;2023-11-18T04:27:35;0.97;;;0.97;;
4821;SDS011;2425;47.794;13.068;2023-11-18T04:30:01;1.30;;;1.30;;
4821;SDS011;2425;47.794;13.068;2023-11-18T04:32:28;1.10;;;1.10;;
4821;SDS011;2425;47.794;13.068;2023-11-18T04:34:58;0.90;;;0.90;;
4821;SDS011;2425;47.794;13.068;2023-11-18T04:37:25;1.33;;;1.10;;
4821;SDS011;2425;47.794;13.068;2023-11-18T04:39:51;1.00;;;1.00;;
4821;SDS011;2425;47.794;13.068;2023-11-18T04:42:19;1.30;;;1.30;;
4821;SDS011;2425;47.794;13.068;2023-11-18T04:44:47;1.23;;;1.23;;
4821;SDS011;2425;47.794;13.068;2023-11-18T04:47:13;0.80;;;0.80;;
4821;SDS011;2425;47.794;13.068;2023-11-18T04:49:41;1.20;;;1.20;;
4821;SDS011;2425;47.794;13.068;2023-11-18T04:52:08;1.00;;;1.00;;
4821;SDS011;2425;47.794;13.068;2023-11-18T04:54:35;0.90;;;0.90;;
4821;SDS011;2425;47.794;13.068;2023-11-18T04:57:02;1.00;;;1.00;;
4821;SDS011;2425;47.794;13.068;2023-11-18T04:59:29;1.10;;;1.10;;
4821;SDS011;2425;47.794;13.068;2023-11-18T05:01:58;1.20;;;1.10;;
4821;SDS011;2425;47.794;13.068;2023-11-18T05:04:27;0.93;;;0.93;;
4821;SDS011;2425;47.794;13.068;2023-11-18T05:06:54;1.23;;;1.23;;
4821;SDS011;2425;47.794;13.068;2023-11-18T05:09:21;0.90;;;0.90;;
4821;SDS011;2425;47.794;13.068;2023-11-18T05:11:47;1.30;;;1.20;;
4821;SDS011;2425;47.794;13.068;2023-11-18T05:14:14;0.90;;;0.90;;
4821;SDS011;2425;47.794;13.068;2023-11-18T05:16:41;1.30;;;1.20;;
4821;SDS011;2425;47.794;13.068;2023-11-18T05:19:09;1.10;;;1.10;;
4821;SDS011;2425;47.794;13.068;2023-11-18T05:21:36;0.97;;;0.97;;
4821;SDS011;2425;47.794;13.068;2023-11-18T05:24:03;0.77;;;0.77;;
4821;SDS011;2425;47.794;13.068;2023-11-18T05:26:30;0.90;;;0.90;;
4821;SDS011;2425;47.794;13.068;2023-11-18T05:29:00;0.80;;;0.80;;
4821;SDS011;2425;47.794;13.068;2023-11-18T05:31:26;0.90;;;0.90;;
4821;SDS011;2425;47.794;13.068;2023-11-18T05:33:54;0.80;;;0.80;;
4821;SDS011;2425;47.794;13.068;2023-11-18T05:36:22;1.00;;;0.90;;
4821;SDS011;2425;47.794;13.068;2023-11-18T05:38:52;1.03;;;1.03;;
4821;SDS011;2425;47.794;13.068;2023-11-18T05:41:20;1.00;;;1.00;;
4821;SDS011;2425;47.794;13.068;2023-11-18T05:43:53;1.10;;;1.10;;
4821;SDS011;2425;47.794;13.068;2023-11-18T05:46:22;1.10;;;1.10;;
4821;SDS011;2425;47.794;13.068;2023-11-18T05:48:51;0.90;;;0.90;;
4821;SDS011;2425;47.794;13.068;2023-11-18T05:51:18;1.00;;;1.00;;
4821;SDS011;2425;47.794;13.068;2023-11-18T05:53:48;1.07;;;1.07;;
4821;SDS011;2425;47.794;13.068;2023-11-18T05:56:15;0.80;;;0.80;;
4821;SDS011;2425;47.794;13.068;2023-11-18T05:58:42;1.00;;;1.00;;
4821;SDS011;2425;47.794;13.068;2023-11-18T06:01:09;0.80;;;0.80;;
4821;SDS011;2425;47.794;13.068;2023-11-18T06:03:37;0.83;;;0.83;;
4821;SDS011;2425;47.794;13.068;2023-11-18T06:06:04;0.90;;;0.90;;
4821;SDS011;2425;47.794;13.068;2023-11-18T06:08:32;0.83;;;0.83;;
4821;SDS011;2425;47.794;13.068;2023-11-18T06:11:00;0.80;;;0.80;;
4821;SDS011;2425;47.794;13.068;2023-11-18T06:13:37;1.03;;;0.90;;
4821;SDS011;2425;47.794;13.068;2023-11-18T06:16:11;0.93;;;0.93;;
4821;SDS011;2425;47.794;13.068;2023-11-18T06:18:55;0.70;;;0.70;;
4821;SDS011;2425;47.794;13.068;2023-11-18T06:21:32;0.90;;;0.90;;
4821;SDS011;2425;47.794;13.068;2023-11-18T06:24:06;0.83;;;0.83;;
4821;SDS011;2425;47.794;13.068;2023-11-18T06:26:37;0.90;;;0.90;;
4821;SDS011;2425;47.794;13.068;2023-11-18T06:29:04;0.77;;;0.77;;
4821;SDS011;2425;47.794;13.068;2023-11-18T06:31:31;0.73;;;0.73;;
4821;SDS011;2425;47.794;13.068;2023-11-18T06:33:58;0.80;;;0.80;;
4821;SDS011;2425;47.794;13.068;2023-11-18T06:36:24;0.73;;;0.73;;
4821;SDS011;2425;47.794;13.068;2023-11-18T06:38:54;0.70;;;0.70;;
4821;SDS011;2425;47.794;13.068;2023-11-18T06:41:22;0.83;;;0.83;;
4821;SDS011;2425;47.794;13.068;2023-11-18T06:43:52;0.70;;;0.70;;
4821;SDS011;2425;47.794;13.068;2023-11-18T06:46:26;0.90;;;0.90;;
4821;SDS011;2425;47.794;13.068;2023-11-18T06:48:57;1.27;;;1.17;;
4821;SDS011;2425;47.794;13.068;2023-11-18T06:51:24;0.77;;;0.77;;
4821;SDS011;2425;47.794;13.068;2023-11-18T06:53:52;1.43;;;0.90;;
4821;SDS011;2425;47.794;13.068;2023-11-18T06:56:22;1.00;;;0.90;;
4821;SDS011;2425;47.794;13.068;2023-11-18T06:58:49;0.70;;;0.70;;
4821;SDS011;2425;47.794;13.068;2023-11-18T07:01:17;0.73;;;0.73;;
4821;SDS011;2425;47.794;13.068;2023-11-18T07:03:44;0.83;;;0.83;;
4821;SDS011;2425;47.794;13.068;2023-11-18T07:06:16;0.70;;;0.70;;
4821;SDS011;2425;47.794;13.068;2023-11-18T07:08:47;0.80;;;0.80;;
4821;SDS011;2425;47.794;13.068;2023-11-18T07:11:14;0.87;;;0.87;;
4821;SDS011;2425;47.794;13.068;2023-11-18T07:13:41;0.80;;;0.80;;
4821;SDS011;2425;47.794;13.068;2023-11-18T07:16:08;0.83;;;0.83;;
4821;SDS011;2425;47.794;13.068;2023-11-18T07:18:37;0.80;;;0.80;;
4821;SDS011;2425;47.794;13.068;2023-11-18T07:21:04;1.67;;;0.90;;
4821;SDS011;2425;47.794;13.068;2023-11-18T07:23:31;1.27;;;0.90;;
4821;SDS011;2425;47.794;13.068;2023-11-18T07:25:58;0.67;;;0.67;;
4821;SDS011;2425;47.794;13.068;2023-11-18T07:28:25;2.40;;;0.67;;
4821;SDS011;2425;47.794;13.068;2023-11-18T07:30:52;0.83;;;0.77;;
4821;SDS011;2425;47.794;13.068;2023-11-18T07:33:19;0.60;;;0.60;;
4821;SDS011;2425;47.794;13.068;2023-11-18T07:35:48;0.80;;;0.80;;
4821;SDS011;2425;47.794;13.068;2023-11-18T07:38:15;1.83;;;0.67;;
4821;SDS011;2425;47.794;13.068;2023-11-18T07:40:45;1.10;;;1.10;;
4821;SDS011;2425;47.794;13.068;2023-11-18T07:43:12;3.60;;;0.70;;
4821;SDS011;2425;47.794;13.068;2023-11-18T07:45:40;1.27;;;1.10;;
4821;SDS011;2425;47.794;13.068;2023-11-18T07:48:07;1.00;;;1.00;;
4821;SDS011;2425;47.794;13.068;2023-11-18T07:50:35;1.40;;;1.40;;
4821;SDS011;2425;47.794;13.068;2023-11-18T07:53:03;1.30;;;1.30;;
4821;SDS011;2425;47.794;13.068;2023-11-18T07:55:31;1.50;;;1.40;;
4821;SDS011;2425;47.794;13.068;2023-11-18T07:58:02;1.47;;;1.37;;
4821;SDS011;2425;47.794;13.068;2023-11-18T08:00:37;1.37;;;1.37;;
4821;SDS011;2425;47.794;13.068;2023-11-18T08:03:04;1.33;;;1.33;;
4821;SDS011;2425;47.794;13.068;2023-11-18T08:05:32;1.43;;;1.43;;
4821;SDS011;2425;47.794;13.068;2023-11-18T08:07:59;1.83;;;1.43;;
4821;SDS011;2425;47.794;13.068;2023-11-18T08:10:27;1.87;;;1.77;;
4821;SDS011;2425;47.794;13.068;2023-11-18T08:12:57;1.33;;;1.33;;
4821;SDS011;2425;47.794;13.068;2023-11-18T08:15:24;7.10;;;1.37;;
4821;SDS011;2425;47.794;13.068;2023-11-18T08:17:52;1.40;;;1.30;;
4821;SDS011;2425;47.794;13.068;2023-11-18T08:20:18;2.50;;;1.73;;
4821;SDS011;2425;47.794;13.068;2023-11-18T08:22:50;1.73;;;1.63;;
4821;SDS011;2425;47.794;13.068;2023-11-18T08:25:16;3.40;;;1.83;;
4821;SDS011;2425;47.794;13.068;2023-11-18T08:27:45;1.80;;;1.70;;
4821;SDS011;2425;47.794;13.068;2023-11-18T08:30:12;2.03;;;1.93;;
4821;SDS011;2425;47.794;13.068;2023-11-18T08:32:39;2.33;;;2.10;;
4821;SDS011;2425;47.794;13.068;2023-11-18T08:35:09;5.80;;;2.50;;
4821;SDS011;2425;47.794;13.068;2023-11-18T08:37:38;1.73;;;1.73;;
4821;SDS011;2425;47.794;13.068;2023-11-18T08:40:06;3.47;;;2.47;;
4821;SDS011;2425;47.794;13.068;2023-11-18T08:42:39;2.70;;;2.50;;
4821;SDS011;2425;47.794;13.068;2023-11-18T08:45:11;6.30;;;2.63;;
4821;SDS011;2425;47.794;13.068;2023-11-18T08:47:41;2.67;;;2.57;;
4821;SDS011;2425;47.794;13.068;2023-11-18T08:50:09;3.03;;;2.60;;
4821;SDS011;2425;47.794;13.068;2023-11-18T08:52:37;3.03;;;2.80;;
4821;SDS011;2425;47.794;13.068;2023-11-18T08:55:08;10.30;;;2.77;;
4821;SDS011;2425;47.794;13.068;2023-11-18T08:57:42;2.97;;;2.77;;
4821;SDS011;2425;47.794;13.068;2023-11-18T09:00:18;3.30;;;3.00;;
4821;SDS011;2425;47.794;13.068;2023-11-18T09:02:59;2.20;;;2.10;;
4821;SDS011;2425;47.794;13.068;2023-11-18T09:05:30;1.73;;;1.73;;
4821;SDS011;2425;47.794;13.068;2023-11-18T09:07:57;2.07;;;1.97;;
4821;SDS011;2425;47.794;13.068;2023-11-18T09:10:25;2.30;;;2.10;;
4821;SDS011;2425;47.794;13.068;2023-11-18T09:12:53;2.43;;;2.33;;
4821;SDS011;2425;47.794;13.068;2023-11-18T09:15:21;3.00;;;2.80;;
4821;SDS011;2425;47.794;13.068;2023-11-18T09:17:48;2.93;;;2.73;;
4821;SDS011;2425;47.794;13.068;2023-11-18T09:20:15;2.43;;;2.33;;
4821;SDS011;2425;47.794;13.068;2023-11-18T09:22:45;2.97;;;2.70;;
4821;SDS011;2425;47.794;13.068;2023-11-18T09:25:12;3.00;;;2.70;;
4821;SDS011;2425;47.794;13.068;2023-11-18T09:27:39;3.10;;;2.83;;
4821;SDS011;2425;47.794;13.068;2023-11-18T09:30:06;3.63;;;2.27;;
4821;SDS011;2425;47.794;13.068;2023-11-18T09:32:40;4.23;;;2.60;;
4821;SDS011;2425;47.794;13.068;2023-11-18T09:35:07;4.97;;;3.20;;
4821;SDS011;2425;47.794;13.068;2023-11-18T09:37:37;2.83;;;2.53;;
4821;SDS011;2425;47.794;13.068;2023-11-18T09:40:06;2.87;;;2.70;;
4821;SDS011;2425;47.794;13.068;2023-11-18T09:42:37;5.83;;;2.40;;
4821;SDS011;2425;47.794;13.068;2023-11-18T09:45:05;3.10;;;2.90;;
4821;SDS011;2425;47.794;13.068;2023-11-18T09:47:42;2.47;;;2.37;;
4821;SDS011;2425;47.794;13.068;2023-11-18T09:50:12;2.77;;;2.07;;
4821;SDS011;2425;47.794;13.068;2023-11-18T09:52:48;2.60;;;2.10;;
4821;SDS011;2425;47.794;13.068;2023-11-18T09:55:20;3.90;;;2.20;;
4821;SDS011;2425;47.794;13.068;2023-11-18T09:57:53;2.00;;;1.90;;
4821;SDS011;2425;47.794;13.068;2023-11-18T10:00:23;2.00;;;1.80;;
4821;SDS011;2425;47.794;13.068;2023-11-18T10:02:54;2.20;;;2.10;;
4821;SDS011;2425;47.794;13.068;2023-11-18T10:05:25;6.90;;;2.17;;
4821;SDS011;2425;47.794;13.068;2023-11-18T10:07:53;2.10;;;2.00;;
4821;SDS011;2425;47.794;13.068;2023-11-18T10:10:20;2.07;;;1.97;;
4821;SDS011;2425;47.794;13.068;2023-11-18T10:12:47;1.80;;;1.70;;
4821;SDS011;2425;47.794;13.068;2023-11-18T10:15:17;2.23;;;1.73;;
4821;SDS011;2425;47.794;13.068;2023-11-18T10:17:45;1.90;;;1.80;;
4821;SDS011;2425;47.794;13.068;2023-11-18T10:20:23;2.03;;;1.93;;
4821;SDS011;2425;47.794;13.068;2023-11-18T10:23:09;2.27;;;2.17;;
4821;SDS011;2425;47.794;13.068;2023-11-18T10:25:37;5.20;;;1.97;;
4821;SDS011;2425;47.794;13.068;2023-11-18T10:28:08;2.20;;;2.10;;
4821;SDS011;2425;47.794;13.068;2023-11-18T10:30:47;2.40;;;2.00;;
4821;SDS011;2425;47.794;13.068;2023-11-18T10:33:14;3.10;;;2.00;;
4821;SDS011;2425;47.794;13.068;2023-11-18T10:35:49;2.20;;;1.93;;
4821;SDS011;2425;47.794;13.068;2023-11-18T10:38:18;1.80;;;1.70;;
4821;SDS011;2425;47.794;13.068;2023-11-18T10:40:45;3.00;;;2.20;;
4821;SDS011;2425;47.794;13.068;2023-11-18T10:43:11;2.10;;;2.00;;
4821;SDS011;2425;47.794;13.068;2023-11-18T10:45:42;4.10;;;2.00;;
4821;SDS011;2425;47.794;13.068;2023-11-18T10:48:12;2.10;;;2.00;;
4821;SDS011;2425;47.794;13.068;2023-11-18T10:50:41;7.80;;;2.27;;
4821;SDS011;2425;47.794;13.068;2023-11-18T10:53:10;3.33;;;2.03;;
4821;SDS011;2425;47.794;13.068;2023-11-18T10:55:40;2.00;;;1.90;;
4821;SDS011;2425;47.794;13.068;2023-11-18T10:58:07;3.13;;;2.20;;
4821;SDS011;2425;47.794;13.068;2023-11-18T11:00:50;3.90;;;2.00;;
4821;SDS011;2425;47.794;13.068;2023-11-18T11:03:20;1.90;;;1.80;;
4821;SDS011;2425;47.794;13.068;2023-11-18T11:05:48;1.93;;;1.83;;
4821;SDS011;2425;47.794;13.068;2023-11-18T11:08:16;2.50;;;2.30;;
4821;SDS011;2425;47.794;13.068;2023-11-18T11:10:43;10.33;;;2.37;;
4821;SDS011;2425;47.794;13.068;2023-11-18T11:13:10;2.90;;;2.70;;
4821;SDS011;2425;47.794;13.068;2023-11-18T11:15:40;4.43;;;4.03;;
4821;SDS011;2425;47.794;13.068;2023-11-18T11:18:11;8.90;;;6.27;;
4821;SDS011;2425;47.794;13.068;2023-11-18T11:20:42;16.00;;;9.50;;
4821;SDS011;2425;47.794;13.068;2023-11-18T11:23:14;19.90;;;11.33;;
4821;SDS011;2425;47.794;13.068;2023-11-18T11:25:50;20.80;;;13.00;;
4821;SDS011;2425;47.794;13.068;2023-11-18T11:28:24;22.00;;;13.80;;
4821;SDS011;2425;47.794;13.068;2023-11-18T11:30:58;19.73;;;13.90;;
4821;SDS011;2425;47.794;13.068;2023-11-18T11:33:46;21.17;;;14.53;;
4821;SDS011;2425;47.794;13.068;2023-11-18T11:36:17;22.27;;;15.90;;
4821;SDS011;2425;47.794;13.068;2023-11-18T11:38:49;23.55;;;15.60;;
4821;SDS011;2425;47.794;13.068;2023-11-18T11:41:17;21.60;;;16.20;;
4821;SDS011;2425;47.794;13.068;2023-11-18T11:43:51;26.63;;;16.73;;
4821;SDS011;2425;47.794;13.068;2023-11-18T11:46:20;21.97;;;15.33;;
4821;SDS011;2425;47.794;13.068;2023-11-18T11:48:48;22.50;;;15.77;;
4821;SDS011;2425;47.794;13.068;2023-11-18T11:51:20;17.90;;;14.17;;
4821;SDS011;2425;47.794;13.068;2023-11-18T11:53:55;22.47;;;15.23;;
4821;SDS011;2425;47.794;13.068;2023-11-18T11:56:39;21.83;;;14.27;;
4821;SDS011;2425;47.794;13.068;2023-11-18T11:59:06;20.27;;;14.20;;
4821;SDS011;2425;47.794;13.068;2023-11-18T12:01:36;20.20;;;14.47;;
4821;SDS011;2425;47.794;13.068;2023-11-18T12:04:03;20.23;;;14.43;;
4821;SDS011;2425;47.794;13.068;2023-11-18T12:06:37;23.10;;;14.60;;
4821;SDS011;2425;47.794;13.068;2023-11-18T12:09:10;21.00;;;13.00;;
4821;SDS011;2425;47.794;13.068;2023-11-18T12:11:44;19.10;;;13.40;;
4821;SDS011;2425;47.794;13.068;2023-11-18T12:14:14;18.30;;;12.93;;
4821;SDS011;2425;47.794;13.068;2023-11-18T12:17:00;16.10;;;12.37;;
4821;SDS011;2425;47.794;13.068;2023-11-18T12:19:33;20.50;;;12.40;;
4821;SDS011;2425;47.794;13.068;2023-11-18T12:22:10;16.00;;;11.13;;
4821;SDS011;2425;47.794;13.068;2023-11-18T12:24:44;15.03;;;10.10;;
4821;SDS011;2425;47.794;13.068;2023-11-18T12:27:41;13.57;;;10.13;;
4821;SDS011;2425;47.794;13.068;2023-11-18T12:30:14;14.70;;;10.10;;
4821;SDS011;2425;47.794;13.068;2023-11-18T12:39:32;19.27;;;12.23;;
4821;SDS011;2425;47.794;13.068;2023-11-18T12:42:31;22.90;;;11.40;;
4821;SDS011;2425;47.794;13.068;2023-11-18T12:45:35;17.70;;;11.17;;
4821;SDS011;2425;47.794;13.068;2023-11-18T12:48:12;20.97;;;12.00;;
4821;SDS011;2425;47.794;13.068;2023-11-18T12:50:40;19.67;;;11.30;;
4821;SDS011;2425;47.794;13.068;2023-11-18T12:53:09;19.80;;;11.70;;
4821;SDS011;2425;47.794;13.068;2023-11-18T12:55:39;17.97;;;10.10;;
4821;SDS011;2425;47.794;13.068;2023-11-18T12:58:06;15.10;;;10.20;;
4821;SDS011;2425;47.794;13.068;2023-11-18T13:00:33;16.07;;;9.73;;
4821;SDS011;2425;47.794;13.068;2023-11-18T13:03:01;16.87;;;9.07;;
4821;SDS011;2425;47.794;13.068;2023-11-18T13:05:29;13.43;;;9.07;;
4821;SDS011;2425;47.794;13.068;2023-11-18T13:07:56;13.17;;;9.30;;
4821;SDS011;2425;47.794;13.068;2023-11-18T13:10:24;15.30;;;8.87;;
4821;SDS011;2425;47.794;13.068;2023-11-18T13:12:52;17.23;;;8.73;;
4821;SDS011;2425;47.794;13.068;2023-11-18T13:15:19;14.03;;;8.50;;
4821;SDS011;2425;47.794;13.068;2023-11-18T13:17:59;13.40;;;7.83;;
4821;SDS011;2425;47.794;13.068;2023-11-18T13:20:29;11.43;;;7.27;;
4821;SDS011;2425;47.794;13.068;2023-11-18T13:22:58;13.60;;;7.70;;
4821;SDS011;2425;47.794;13.068;2023-11-18T13:25:26;10.30;;;7.93;;
4821;SDS011;2425;47.794;13.068;2023-11-18T13:27:52;10.80;;;7.07;;
4821;SDS011;2425;47.794;13.068;2023-11-18T13:30:20;10.87;;;6.83;;
4821;SDS011;2425;47.794;13.068;2023-11-18T13:32:47;12.23;;;8.13;;
4821;SDS011;2425;47.794;13.068;2023-11-18T13:35:16;12.20;;;6.50;;
4821;SDS011;2425;47.794;13.068;2023-11-18T13:37:47;8.70;;;6.03;;
4821;SDS011;2425;47.794;13.068;2023-11-18T13:40:15;11.53;;;6.50;;
4821;SDS011;2425;47.794;13.068;2023-11-18T13:42:43;13.43;;;7.43;;
4821;SDS011;2425;47.794;13.068;2023-11-18T13:45:11;11.50;;;6.63;;
4821;SDS011;2425;47.794;13.068;2023-11-18T13:47:47;9.67;;;6.10;;
4821;SDS011;2425;47.794;13.068;2023-11-18T13:50:16;10.10;;;6.03;;
4821;SDS011;2425;47.794;13.068;2023-11-18T13:52:44;6.90;;;5.57;;
4821;SDS011;2425;47.794;13.068;2023-11-18T13:55:14;8.27;;;5.80;;
4821;SDS011;2425;47.794;13.068;2023-11-18T13:57:50;7.57;;;5.43;;
4821;SDS011;2425;47.794;13.068;2023-11-18T14:00:21;6.97;;;5.17;;
4821;SDS011;2425;47.794;13.068;2023-11-18T14:02:48;7.70;;;5.37;;
4821;SDS011;2425;47.794;13.068;2023-11-18T14:05:16;6.20;;;4.60;;
4821;SDS011;2425;47.794;13.068;2023-11-18T14:07:45;6.70;;;5.30;;
4821;SDS011;2425;47.794;13.068;2023-11-18T14:10:14;5.90;;;5.30;;
4821;SDS011;2425;47.794;13.068;2023-11-18T14:12:57;7.40;;;4.80;;
4821;SDS011;2425;47.794;13.068;2023-11-18T14:15:25;5.63;;;4.87;;
4821;SDS011;2425;47.794;13.068;2023-11-18T14:17:51;6.87;;;5.20;;
4821;SDS011;2425;47.794;13.068;2023-11-18T14:20:18;4.63;;;4.23;;
4821;SDS011;2425;47.794;13.068;2023-11-18T14:22:47;5.90;;;5.00;;
4821;SDS011;2425;47.794;13.068;2023-11-18T14:25:15;4.97;;;4.40;;
4821;SDS011;2425;47.794;13.068;2023-11-18T14:27:42;5.73;;;4.57;;
4821;SDS011;2425;47.794;13.068;2023-11-18T14:30:09;7.47;;;4.60;;
4821;SDS011;2425;47.794;13.068;2023-11-18T14:32:37;6.40;;;4.40;;
4821;SDS011;2425;47.794;13.068;2023-11-18T14:35:05;9.13;;;4.57;;
4821;SDS011;2425;47.794;13.068;2023-11-18T14:37:34;4.80;;;4.07;;
4821;SDS011;2425;47.794;13.068;2023-11-18T14:40:07;5.67;;;4.50;;
4821;SDS011;2425;47.794;13.068;2023-11-18T14:42:36;5.07;;;4.27;;
4821;SDS011;2425;47.794;13.068;2023-11-18T14:45:03;6.67;;;4.23;;
4821;SDS011;2425;47.794;13.068;2023-11-18T14:47:33;6.10;;;4.07;;
4821;SDS011;2425;47.794;13.068;2023-11-18T14:50:00;4.30;;;3.90;;
4821;SDS011;2425;47.794;13.068;2023-11-18T14:52:28;5.87;;;3.93;;
4821;SDS011;2425;47.794;13.068;2023-11-18T14:54:54;4.70;;;4.00;;
4821;SDS011;2425;47.794;13.068;2023-11-18T14:57:21;3.77;;;3.47;;
4821;SDS011;2425;47.794;13.068;2023-11-18T14:59:50;4.17;;;3.23;;
4821;SDS011;2425;47.794;13.068;2023-11-18T15:02:17;3.97;;;3.63;;
4821;SDS011;2425;47.794;13.068;2023-11-18T15:04:44;7.63;;;4.20;;
4821;SDS011;2425;47.794;13.068;2023-11-18T15:07:11;3.77;;;3.47;;
4821;SDS011;2425;47.794;13.068;2023-11-18T15:09:38;5.83;;;3.47;;
4821;SDS011;2425;47.794;13.068;2023-11-18T15:12:06;3.93;;;3.27;;
4821;SDS011;2425;47.794;13.068;2023-11-18T15:14:34;5.50;;;3.57;;
4821;SDS011;2425;47.794;13.068;2023-11-18T15:17:02;3.80;;;2.97;;